Time;durP1;ratioP1;P1;durP2;ratioP2;P2;SDS_P1;SDS_P2;PMS_P1;PMS_P2;Temp;Humidity;BMP_temperature;BMP_pressure;BME280_temperature;BME280_humidity;BME280_pressure;Samples;Min_cycle;Max_cycle;Signal;HPM_P1;HPM_P2
2020/12/30 00:00:01;;;;;;;4.80;2.15;;;2.70;99.90;;;;;;5063862;28;20040;-63
2020/12/30 00:02:28;;;;;;;5.07;2.70;;;2.60;99.90;;;;;;5059899;28;20037;-64
2020/12/30 00:04:54;;;;;;;6.82;2.58;;;2.60;99.90;;;;;;5064737;28;20090;-65
2020/12/30 00:07:20;;;;;;;4.68;2.20;;;2.60;99.90;;;;;;5063782;28;20031;-65
2020/12/30 00:09:46;;;;;;;3.20;1.50;;;2.60;99.90;;;;;;5065343;28;20112;-64
2020/12/30 00:12:11;;;;;;;4.55;1.50;;;2.50;99.90;;;;;;5061818;28;20059;-64
2020/12/30 00:14:37;;;;;;;2.97;1.60;;;2.50;99.90;;;;;;5064565;28;20044;-65
2020/12/30 00:17:03;;;;;;;4.20;1.92;;;2.50;99.90;;;;;;5063562;28;20033;-65
2020/12/30 00:19:29;;;;;;;3.38;1.73;;;2.50;99.90;;;;;;5065314;28;20028;-65
2020/12/30 00:21:55;;;;;;;4.97;1.95;;;2.50;99.90;;;;;;5059258;28;20021;-65
2020/12/30 00:24:20;;;;;;;3.60;1.95;;;2.40;99.90;;;;;;5064229;28;20045;-65
2020/12/30 00:26:46;;;;;;;4.20;1.83;;;2.40;99.90;;;;;;5063218;28;20029;-65
2020/12/30 00:29:12;;;;;;;4.03;1.63;;;2.30;99.90;;;;;;5063716;28;20032;-63
2020/12/30 00:31:37;;;;;;;4.63;2.22;;;2.30;99.90;;;;;;5060410;28;20093;-65
2020/12/30 00:34:03;;;;;;;10.40;2.78;;;2.30;99.90;;;;;;5060646;28;20033;-66
2020/12/30 00:36:28;;;;;;;4.20;1.75;;;2.30;99.90;;;;;;5066147;28;20033;-64
2020/12/30 00:38:54;;;;;;;4.20;1.77;;;2.30;99.90;;;;;;5059285;28;20028;-65
2020/12/30 00:41:19;;;;;;;3.47;1.98;;;2.30;99.90;;;;;;5062933;28;20543;-65
2020/12/30 00:43:45;;;;;;;3.50;2.00;;;2.30;99.90;;;;;;5063651;28;20044;-64
2020/12/30 00:46:15;;;;;;;6.97;2.75;;;2.30;99.90;;;;;;5065040;28;20417;-64
2020/12/30 00:48:40;;;;;;;6.88;2.35;;;2.30;99.90;;;;;;5059462;28;20069;-65
2020/12/30 00:51:06;;;;;;;6.63;2.35;;;2.30;99.90;;;;;;5061840;28;20348;-65
2020/12/30 00:53:31;;;;;;;5.57;2.35;;;2.40;99.90;;;;;;5066631;28;20033;-65
2020/12/30 00:55:57;;;;;;;8.93;2.40;;;2.40;99.90;;;;;;5062666;28;20040;-63
2020/12/30 00:58:22;;;;;;;5.20;2.03;;;2.40;99.90;;;;;;5060331;28;20033;-64
2020/12/30 01:00:48;;;;;;;8.65;2.55;;;2.40;99.90;;;;;;5062776;28;20025;-65
2020/12/30 01:03:13;;;;;;;5.57;2.78;;;2.50;99.90;;;;;;5066466;28;20484;-65
2020/12/30 01:05:39;;;;;;;9.73;3.00;;;2.50;99.90;;;;;;5068151;28;20111;-64
2020/12/30 01:08:04;;;;;;;8.52;2.40;;;2.50;99.90;;;;;;5067982;28;20051;-65
2020/12/30 01:10:30;;;;;;;5.10;2.70;;;2.50;99.90;;;;;;5067954;28;20036;-65
2020/12/30 01:12:55;;;;;;;6.88;2.88;;;2.50;99.90;;;;;;5066266;28;20405;-65
2020/12/30 01:15:21;;;;;;;5.20;2.65;;;2.50;99.90;;;;;;5067966;28;20032;-65
2020/12/30 01:17:46;;;;;;;11.88;3.92;;;2.50;99.90;;;;;;5067842;28;20032;-65
2020/12/30 01:20:12;;;;;;;6.50;2.75;;;2.50;99.90;;;;;;5058401;28;20032;-65
2020/12/30 01:22:37;;;;;;;6.47;3.08;;;2.50;99.90;;;;;;5067901;28;20110;-65
2020/12/30 01:25:03;;;;;;;9.93;3.25;;;2.50;99.90;;;;;;5068008;28;20045;-65
2020/12/30 01:27:28;;;;;;;7.32;3.08;;;2.50;99.90;;;;;;5067832;28;20052;-64
2020/12/30 01:29:54;;;;;;;9.73;3.38;;;2.60;99.90;;;;;;5067681;28;20108;-65
2020/12/30 01:32:19;;;;;;;9.32;3.45;;;2.60;99.90;;;;;;5067674;28;20028;-65
2020/12/30 01:34:45;;;;;;;7.72;3.70;;;2.60;99.90;;;;;;5068196;28;20052;-65
2020/12/30 01:37:10;;;;;;;11.82;3.75;;;2.50;99.90;;;;;;5065824;28;20033;-65
2020/12/30 01:39:36;;;;;;;6.18;2.90;;;2.60;99.90;;;;;;5070760;28;20039;-64
2020/12/30 01:42:01;;;;;;;6.10;3.13;;;2.50;99.90;;;;;;5070987;28;20053;-65
2020/12/30 01:44:27;;;;;;;13.23;4.28;;;2.60;99.90;;;;;;5071565;28;20078;-65
2020/12/30 01:46:53;;;;;;;10.75;3.85;;;2.60;99.90;;;;;;5070830;28;20078;-65
2020/12/30 01:49:22;;;;;;;9.80;4.05;;;2.60;99.90;;;;;;5071390;28;20052;-65
2020/12/30 01:51:50;;;;;;;12.63;4.13;;;2.60;99.90;;;;;;5071384;28;20107;-64
2020/12/30 01:54:16;;;;;;;9.20;3.72;;;2.60;99.90;;;;;;5070605;28;20055;-65
2020/12/30 01:56:43;;;;;;;11.05;4.28;;;2.60;99.90;;;;;;5069468;28;20033;-65
2020/12/30 01:59:14;;;;;;;8.80;3.92;;;2.70;99.90;;;;;;5073012;28;20075;-65
2020/12/30 02:01:41;;;;;;;;;;;2.70;99.90;;;;;;5063158;28;20116;-65
2020/12/30 02:04:10;;;;;;;8.82;3.30;;;2.80;99.90;;;;;;5070735;28;20011;-65
2020/12/30 02:06:37;;;;;;;10.70;4.00;;;2.80;99.90;;;;;;5069417;28;20504;-65
2020/12/30 02:09:04;;;;;;;10.30;4.90;;;2.80;99.90;;;;;;5070527;28;20055;-64
2020/12/30 02:11:31;;;;;;;9.20;4.70;;;2.80;99.90;;;;;;5069280;28;20115;-65
2020/12/30 02:14:07;;;;;;;10.27;4.35;;;2.90;99.90;;;;;;5070680;28;20025;-65
2020/12/30 02:16:50;;;;;;;17.27;5.30;;;2.90;99.90;;;;;;5062820;28;20036;-65
2020/12/30 02:19:15;;;;;;;14.93;5.25;;;3.00;99.90;;;;;;5064201;28;20033;-65
2020/12/30 02:21:41;;;;;;;13.32;5.70;;;3.00;99.90;;;;;;5070720;28;20028;-64
2020/12/30 02:24:10;;;;;;;13.05;5.57;;;3.00;99.90;;;;;;5070238;28;20461;-65
2020/12/30 02:26:36;;;;;;;16.63;5.85;;;3.00;99.90;;;;;;5070653;28;20033;-63
2020/12/30 02:29:01;;;;;;;18.00;5.72;;;2.90;99.90;;;;;;5069919;28;20085;-65
2020/12/30 02:31:28;;;;;;;15.75;6.10;;;2.90;99.90;;;;;;5070392;28;20029;-65
2020/12/30 02:33:54;;;;;;;10.10;5.32;;;2.90;99.90;;;;;;5070359;28;20020;-65
2020/12/30 02:36:19;;;;;;;18.08;6.53;;;2.80;99.90;;;;;;5070046;28;20052;-65
2020/12/30 02:38:45;;;;;;;18.63;6.80;;;2.80;99.90;;;;;;5070217;28;20024;-65
2020/12/30 02:41:10;;;;;;;19.92;7.68;;;2.80;99.90;;;;;;5068479;28;20065;-65
2020/12/30 02:43:36;;;;;;;18.90;7.22;;;2.80;99.90;;;;;;5070392;28;20234;-65
2020/12/30 02:46:01;;;;;;;15.45;5.93;;;2.80;99.90;;;;;;5069839;28;20131;-68
2020/12/30 02:48:27;;;;;;;16.65;6.90;;;2.70;99.90;;;;;;5070167;28;20173;-65
2020/12/30 02:50:53;;;;;;;14.55;6.70;;;2.70;99.90;;;;;;5070040;28;20469;-64
2020/12/30 02:53:19;;;;;;;14.38;6.82;;;2.70;99.90;;;;;;5069931;28;20516;-63
2020/12/30 02:55:44;;;;;;;15.18;6.60;;;2.70;99.90;;;;;;5070078;28;20037;-65
2020/12/30 02:58:10;;;;;;;13.48;5.53;;;2.70;99.90;;;;;;5069377;28;20055;-64
2020/12/30 03:00:35;;;;;;;13.07;5.82;;;2.60;99.90;;;;;;5069853;28;20046;-64
2020/12/30 03:03:01;;;;;;;16.33;6.88;;;2.60;99.90;;;;;;5069494;28;20037;-64
2020/12/30 03:05:26;;;;;;;19.30;6.35;;;2.50;99.90;;;;;;5069504;28;20396;-65
2020/12/30 03:07:52;;;;;;;15.13;6.28;;;2.50;99.90;;;;;;5069536;28;20089;-65
2020/12/30 03:10:17;;;;;;;12.27;4.88;;;2.50;99.90;;;;;;5069322;28;20036;-65
2020/12/30 03:12:43;;;;;;;14.93;5.57;;;2.50;99.90;;;;;;5069628;28;20029;-65
2020/12/30 03:15:08;;;;;;;16.85;6.05;;;2.50;99.90;;;;;;5069090;28;20094;-65
2020/12/30 03:17:34;;;;;;;17.70;5.20;;;2.50;99.90;;;;;;5068464;28;20024;-65
2020/12/30 03:19:59;;;;;;;16.52;5.53;;;2.40;99.90;;;;;;5069395;28;20059;-65
2020/12/30 03:22:25;;;;;;;14.55;5.78;;;2.40;99.90;;;;;;5067849;28;20029;-64
2020/12/30 03:24:50;;;;;;;11.18;5.50;;;2.40;99.90;;;;;;5069330;28;20064;-65
2020/12/30 03:27:16;;;;;;;15.80;6.78;;;2.40;99.90;;;;;;5068978;28;20029;-64
2020/12/30 03:29:41;;;;;;;17.48;6.15;;;2.40;99.90;;;;;;5067672;28;20037;-64
2020/12/30 03:32:07;;;;;;;16.40;6.15;;;2.40;99.90;;;;;;5069516;28;20036;-65
2020/12/30 03:34:32;;;;;;;18.02;6.22;;;2.40;99.90;;;;;;5068719;28;20036;-64
2020/12/30 03:36:58;;;;;;;14.30;6.20;;;2.40;99.90;;;;;;5067879;28;20043;-65
2020/12/30 03:39:24;;;;;;;17.60;6.78;;;2.40;99.90;;;;;;5068929;28;20037;-65
2020/12/30 03:41:49;;;;;;;18.23;5.90;;;2.50;99.90;;;;;;5067876;28;20032;-64
2020/12/30 03:44:15;;;;;;;18.77;6.18;;;2.50;99.90;;;;;;5068798;28;20043;-65
2020/12/30 03:46:40;;;;;;;13.77;6.18;;;2.60;99.90;;;;;;5069309;28;20029;-65
2020/12/30 03:49:06;;;;;;;14.27;5.65;;;2.60;99.90;;;;;;5069070;28;20404;-65
2020/12/30 03:51:31;;;;;;;17.67;6.93;;;2.70;99.90;;;;;;5068856;28;20074;-65
2020/12/30 03:53:57;;;;;;;13.05;5.43;;;2.70;99.90;;;;;;5068958;28;20299;-65
2020/12/30 03:56:22;;;;;;;15.60;5.45;;;2.70;99.90;;;;;;5068821;28;20069;-65
2020/12/30 03:58:48;;;;;;;14.82;5.60;;;2.80;99.90;;;;;;5068673;28;20052;-64
2020/12/30 04:01:13;;;;;;;11.80;5.18;;;2.80;99.90;;;;;;5068626;28;20089;-66
2020/12/30 04:03:39;;;;;;;10.10;4.70;;;2.70;99.90;;;;;;5068406;28;20055;-64
2020/12/30 04:06:04;;;;;;;9.90;4.53;;;2.80;99.90;;;;;;5068846;28;20043;-65
2020/12/30 04:08:30;;;;;;;12.30;4.57;;;2.80;99.90;;;;;;5066917;28;20032;-66
2020/12/30 04:10:55;;;;;;;11.27;5.10;;;2.80;99.90;;;;;;5068754;28;20433;-65
2020/12/30 04:13:21;;;;;;;10.70;4.85;;;2.80;99.90;;;;;;5083325;22;20041;-60
2020/12/30 04:15:46;;;;;;;12.25;4.45;;;2.80;99.90;;;;;;5056126;28;20037;-62
2020/12/30 04:18:12;;;;;;;7.30;3.30;;;2.90;99.90;;;;;;5060351;28;20035;-61
2020/12/30 04:20:38;;;;;;;7.65;3.38;;;2.90;99.90;;;;;;5057555;28;20029;-61
2020/12/30 04:23:04;;;;;;;9.07;3.05;;;2.90;99.90;;;;;;5060021;28;20035;-62
2020/12/30 04:25:29;;;;;;;10.30;3.30;;;2.80;99.90;;;;;;5056616;28;20393;-62
2020/12/30 04:27:55;;;;;;;7.43;2.40;;;2.80;99.90;;;;;;5059244;28;20026;-59
2020/12/30 04:30:20;;;;;;;6.47;2.15;;;2.90;99.90;;;;;;5058068;28;20400;-63
2020/12/30 04:32:46;;;;;;;5.40;2.17;;;2.90;99.90;;;;;;5057519;28;20029;-61
2020/12/30 04:35:11;;;;;;;4.85;2.10;;;2.90;99.90;;;;;;5059115;28;20041;-61
2020/12/30 04:37:37;;;;;;;4.63;1.80;;;2.90;99.90;;;;;;5054873;28;20044;-61
2020/12/30 04:40:03;;;;;;;4.47;1.70;;;2.90;99.90;;;;;;5060233;28;20043;-61
2020/12/30 04:42:37;;;;;;;7.22;2.10;;;2.90;99.90;;;;;;5056291;28;20033;-61
2020/12/30 04:45:08;;;;;;;2.45;1.25;;;2.90;99.90;;;;;;5056240;28;20478;-61
2020/12/30 04:47:34;;;;;;;2.58;1.30;;;2.90;99.90;;;;;;5056379;28;20067;-61
2020/12/30 04:50:00;;;;;;;6.65;1.20;;;2.90;99.90;;;;;;5058409;28;20037;-63
2020/12/30 04:52:27;;;;;;;3.90;0.98;;;2.80;99.90;;;;;;5056815;28;20032;-62
2020/12/30 04:54:53;;;;;;;3.53;1.02;;;2.80;99.90;;;;;;5058325;28;20041;-60
2020/12/30 04:58:01;;;;;;;2.03;0.82;;;2.70;99.90;;;;;;5059708;28;20045;-62
2020/12/30 05:00:27;;;;;;;3.42;1.00;;;2.70;99.90;;;;;;5058798;28;20039;-61
2020/12/30 05:02:53;;;;;;;2.53;1.13;;;2.70;99.90;;;;;;5057244;28;20028;-60
2020/12/30 05:05:20;;;;;;;2.72;1.30;;;2.70;99.90;;;;;;5057824;28;20032;-62
2020/12/30 05:07:46;;;;;;;3.45;1.10;;;2.70;99.90;;;;;;5057784;28;20378;-62
2020/12/30 05:10:16;;;;;;;5.80;1.52;;;2.80;99.90;;;;;;5056521;28;20048;-61
2020/12/30 05:12:42;;;;;;;4.13;0.80;;;2.80;99.90;;;;;;5058436;28;20588;-62
2020/12/30 05:15:08;;;;;;;5.47;1.25;;;2.80;99.90;;;;;;5060231;28;20037;-61
2020/12/30 05:17:35;;;;;;;7.43;1.75;;;2.90;99.90;;;;;;5063222;28;20555;-62
2020/12/30 05:20:00;;;;;;;3.67;1.20;;;2.90;99.90;;;;;;5060286;28;20033;-61
2020/12/30 05:22:26;;;;;;;2.03;1.27;;;3.00;99.90;;;;;;5062810;28;20025;-60
2020/12/30 05:24:51;;;;;;;5.45;1.50;;;3.00;99.90;;;;;;5061066;28;20206;-62
2020/12/30 05:27:18;;;;;;;3.25;1.00;;;3.00;99.90;;;;;;5062194;28;20056;-61
2020/12/30 05:29:52;;;;;;;5.60;1.55;;;3.00;99.90;;;;;;5060069;28;20036;-61
2020/12/30 05:32:18;;;;;;;6.18;1.30;;;3.00;99.90;;;;;;5062233;28;20496;-61
2020/12/30 05:34:45;;;;;;;2.70;1.48;;;3.10;99.90;;;;;;5059589;28;20096;-62
2020/12/30 05:37:12;;;;;;;4.47;1.30;;;3.10;99.90;;;;;;5061164;28;20075;-61
2020/12/30 05:39:37;;;;;;;3.05;1.25;;;3.10;99.90;;;;;;5062224;28;20428;-61
2020/12/30 05:42:15;;;;;;;6.47;1.17;;;3.10;99.90;;;;;;5059700;28;20036;-62
2020/12/30 05:44:45;;;;;;;3.08;1.20;;;3.10;99.90;;;;;;5061426;28;20033;-61
2020/12/30 05:47:15;;;;;;;5.85;1.02;;;3.20;99.90;;;;;;5060831;28;20098;-59
2020/12/30 05:49:42;;;;;;;4.60;1.30;;;3.30;99.90;;;;;;5059954;28;20249;-61
2020/12/30 05:52:11;;;;;;;2.67;1.05;;;3.40;99.90;;;;;;5060119;28;20060;-64
2020/12/30 05:54:37;;;;;;;4.90;1.57;;;3.40;99.90;;;;;;5060206;28;20047;-62
2020/12/30 05:57:22;;;;;;;5.15;1.70;;;3.40;99.90;;;;;;5059546;28;20169;-62
2020/12/30 05:59:50;;;;;;;2.58;1.38;;;3.50;99.90;;;;;;5059887;28;20419;-61
2020/12/30 06:02:17;;;;;;;5.15;1.15;;;3.50;99.90;;;;;;5061134;28;20112;-60
2020/12/30 06:04:43;;;;;;;10.35;2.03;;;3.60;99.90;;;;;;5060143;28;20029;-63
2020/12/30 06:07:13;;;;;;;3.83;1.05;;;3.60;99.90;;;;;;5060271;28;20481;-61
2020/12/30 06:09:40;;;;;;;2.80;1.27;;;3.60;99.90;;;;;;5060960;28;20404;-61
2020/12/30 06:12:06;;;;;;;7.25;2.08;;;3.50;99.90;;;;;;5060033;28;20041;-61
2020/12/30 06:14:33;;;;;;;2.13;1.30;;;3.50;99.90;;;;;;5060272;28;20063;-59
2020/12/30 06:17:02;;;;;;;4.32;1.45;;;3.50;99.90;;;;;;5059137;28;20033;-59
2020/12/30 06:19:28;;;;;;;2.63;1.25;;;3.40;99.90;;;;;;5058959;28;20052;-61
2020/12/30 06:21:53;;;;;;;6.35;1.20;;;3.40;99.90;;;;;;5061426;28;20477;-61
2020/12/30 06:24:19;;;;;;;5.82;2.10;;;3.40;99.90;;;;;;5059391;28;20512;-61
2020/12/30 06:26:44;;;;;;;3.08;1.13;;;3.40;99.90;;;;;;5060256;28;20032;-61
2020/12/30 06:29:16;;;;;;;4.22;1.33;;;3.40;99.90;;;;;;5059304;28;20219;-61
2020/12/30 06:31:47;;;;;;;3.63;1.02;;;3.40;99.90;;;;;;5059704;28;20040;-60
2020/12/30 06:34:14;;;;;;;4.90;1.52;;;3.40;99.90;;;;;;5060257;28;20032;-61
2020/12/30 06:36:41;;;;;;;3.80;1.40;;;3.40;99.90;;;;;;5059343;28;20504;-61
2020/12/30 06:39:23;;;;;;;10.98;2.58;;;3.40;99.90;;;;;;5060915;28;20439;-61
2020/12/30 06:42:09;;;;;;;3.15;1.38;;;3.50;99.90;;;;;;5060836;28;20131;-61
2020/12/30 06:44:36;;;;;;;3.22;1.15;;;3.50;99.90;;;;;;5059071;28;20029;-63
2020/12/30 06:47:03;;;;;;;3.65;0.80;;;3.50;99.90;;;;;;5061080;28;20123;-60
2020/12/30 06:49:28;;;;;;;3.63;1.27;;;3.60;99.90;;;;;;5058556;28;20033;-61
2020/12/30 06:51:54;;;;;;;3.08;1.38;;;3.60;99.90;;;;;;5060034;28;20040;-60
2020/12/30 06:54:20;;;;;;;4.30;1.60;;;3.60;99.90;;;;;;5058591;28;20037;-60
2020/12/30 06:56:47;;;;;;;2.65;1.40;;;3.60;99.90;;;;;;5060504;28;20558;-61
2020/12/30 06:59:16;;;;;;;4.18;1.17;;;3.60;99.90;;;;;;5059658;28;20025;-61
2020/12/30 07:02:00;;;;;;;5.78;1.52;;;3.60;99.90;;;;;;5058727;28;20120;-62
2020/12/30 07:04:27;;;;;;;3.03;1.35;;;3.60;99.90;;;;;;5058563;28;20042;-63
2020/12/30 07:06:54;;;;;;;3.65;1.70;;;3.60;99.90;;;;;;5057618;28;20389;-59
2020/12/30 07:09:33;;;;;;;4.53;1.85;;;3.50;99.90;;;;;;5058210;28;20025;-63
2020/12/30 07:12:06;;;;;;;6.00;1.92;;;3.50;99.90;;;;;;5057500;28;20036;-61
2020/12/30 07:14:33;;;;;;;4.43;2.08;;;3.40;99.90;;;;;;5060730;28;20097;-61
2020/12/30 07:17:00;;;;;;;5.35;2.22;;;3.40;99.90;;;;;;5056024;28;20032;-61
2020/12/30 07:19:31;;;;;;;6.07;2.17;;;3.30;99.90;;;;;;5061464;28;20067;-60
2020/12/30 07:22:04;;;;;;;5.43;2.03;;;3.30;99.90;;;;;;5057371;28;20037;-62
2020/12/30 07:24:36;;;;;;;4.28;2.20;;;3.30;99.90;;;;;;5059291;28;20031;-63
2020/12/30 07:27:06;;;;;;;6.35;2.40;;;3.30;99.90;;;;;;5057864;28;20075;-64
2020/12/30 07:29:33;;;;;;;5.72;2.60;;;3.20;99.90;;;;;;5060061;28;20397;-61
2020/12/30 07:32:01;;;;;;;8.02;2.50;;;3.20;99.90;;;;;;5055900;28;20024;-60
2020/12/30 07:34:29;;;;;;;9.13;2.95;;;3.10;99.90;;;;;;5057748;28;20029;-61
2020/12/30 07:36:55;;;;;;;6.90;2.72;;;3.10;99.90;;;;;;5061674;28;20044;-62
2020/12/30 07:39:29;;;;;;;7.60;3.03;;;3.00;99.90;;;;;;5059762;28;20021;-61
2020/12/30 07:41:55;;;;;;;9.52;3.40;;;3.00;99.90;;;;;;5058354;28;20036;-60
2020/12/30 07:44:21;;;;;;;8.65;2.80;;;2.90;99.90;;;;;;5061534;28;20098;-62
2020/12/30 07:46:47;;;;;;;12.88;3.45;;;2.90;99.90;;;;;;5057498;28;20162;-61
2020/12/30 07:49:21;;;;;;;9.88;4.47;;;2.90;99.90;;;;;;5057213;28;20115;-60
2020/12/30 07:51:57;;;;;;;9.45;3.60;;;3.00;99.90;;;;;;5056658;28;20524;-61
2020/12/30 07:54:25;;;;;;;13.00;4.60;;;3.00;99.90;;;;;;5057254;28;20033;-61
2020/12/30 07:56:52;;;;;;;10.70;3.85;;;3.00;99.90;;;;;;5057792;28;20029;-63
2020/12/30 07:59:22;;;;;;;16.00;5.18;;;3.00;99.90;;;;;;5061407;28;20094;-60
2020/12/30 08:01:57;;;;;;;9.95;3.60;;;3.00;99.90;;;;;;5059586;28;20033;-62
2020/12/30 08:04:23;;;;;;;11.40;4.05;;;3.00;99.90;;;;;;5057137;28;20028;-62
2020/12/30 08:06:49;;;;;;;10.80;4.10;;;3.00;99.90;;;;;;5056745;28;20036;-61
2020/12/30 08:09:16;;;;;;;14.02;4.30;;;3.00;99.90;;;;;;5063126;28;20393;-62
2020/12/30 08:11:55;;;;;;;11.70;4.10;;;3.00;99.90;;;;;;5063376;28;20047;-61
2020/12/30 08:14:23;;;;;;;12.18;3.80;;;3.00;99.90;;;;;;5060151;28;20486;-60
2020/12/30 08:16:52;;;;;;;9.32;3.22;;;3.00;99.90;;;;;;5062811;28;20531;-63
2020/12/30 08:19:32;;;;;;;8.52;3.22;;;3.10;99.90;;;;;;5063918;28;20502;-60
2020/12/30 08:22:04;;;;;;;15.63;3.05;;;3.00;99.90;;;;;;5061409;28;20033;-61
2020/12/30 08:24:31;;;;;;;6.95;2.42;;;3.00;99.90;;;;;;5064780;28;20089;-61
2020/12/30 08:26:57;;;;;;;6.35;3.28;;;3.00;99.90;;;;;;5070191;28;20029;-61
2020/12/30 08:29:30;;;;;;;4.60;2.28;;;3.00;99.90;;;;;;5065440;28;20028;-62
2020/12/30 08:31:58;;;;;;;5.95;1.75;;;3.00;99.90;;;;;;5064357;28;20033;-61
2020/12/30 08:34:28;;;;;;;6.13;1.70;;;3.10;99.90;;;;;;5064507;28;20039;-61
2020/12/30 08:37:07;;;;;;;4.78;2.30;;;3.10;99.90;;;;;;5062109;28;20477;-60
2020/12/30 08:39:46;;;;;;;5.78;2.10;;;3.20;99.90;;;;;;5066231;28;20025;-61
2020/12/30 08:42:24;;;;;;;4.75;2.20;;;3.20;99.90;;;;;;5061365;28;20102;-59
2020/12/30 08:44:59;;;;;;;7.00;2.50;;;3.30;99.90;;;;;;5060919;28;20551;-61
2020/12/30 08:47:28;;;;;;;6.63;1.98;;;3.40;99.90;;;;;;5062840;28;20078;-63
2020/12/30 08:49:54;;;;;;;4.07;1.50;;;3.50;99.90;;;;;;5068719;28;20084;-63
2020/12/30 08:52:20;;;;;;;6.70;2.35;;;3.60;99.90;;;;;;5067236;28;20036;-60
2020/12/30 08:54:46;;;;;;;4.65;1.55;;;3.60;99.90;;;;;;5058694;28;20029;-62
2020/12/30 08:57:17;;;;;;;2.92;1.33;;;3.70;99.90;;;;;;5063360;28;20389;-62
2020/12/30 08:59:43;;;;;;;2.92;1.58;;;3.80;99.90;;;;;;5066318;28;20511;-64
2020/12/30 09:02:13;;;;;;;5.60;1.83;;;3.90;99.90;;;;;;5066907;28;20029;-61
2020/12/30 09:04:52;;;;;;;4.57;1.73;;;3.90;99.90;;;;;;5065779;28;20029;-61
2020/12/30 09:07:25;;;;;;;3.97;2.08;;;3.90;99.90;;;;;;5067244;28;20035;-61
2020/12/30 09:10:05;;;;;;;2.38;1.20;;;4.00;99.90;;;;;;5067710;28;20033;-62
2020/12/30 09:12:30;;;;;;;4.97;1.00;;;4.10;99.90;;;;;;5067216;28;20396;-63
2020/12/30 09:14:56;;;;;;;1.95;1.00;;;4.10;99.90;;;;;;5066516;28;20042;-61
2020/12/30 09:17:22;;;;;;;2.53;1.00;;;4.10;99.90;;;;;;5068871;28;20491;-61
2020/12/30 09:19:48;;;;;;;5.47;1.23;;;4.10;99.90;;;;;;5066862;28;20041;-61
2020/12/30 09:22:14;;;;;;;3.63;0.98;;;4.10;99.90;;;;;;5063468;28;20031;-61
2020/12/30 09:24:43;;;;;;;2.38;1.00;;;4.20;99.90;;;;;;5059079;28;20041;-60
2020/12/30 09:27:23;;;;;;;3.58;0.90;;;4.20;99.90;;;;;;5061681;28;20025;-61
2020/12/30 09:30:07;;;;;;;2.88;1.25;;;4.10;99.90;;;;;;5059677;28;20037;-61
2020/12/30 09:32:33;;;;;;;5.38;1.33;;;4.10;99.90;;;;;;5061595;28;20116;-61
2020/12/30 09:35:07;;;;;;;2.58;1.30;;;4.00;99.90;;;;;;5061716;28;20166;-62
2020/12/30 09:37:33;;;;;;;4.28;1.83;;;4.00;99.90;;;;;;5061613;28;20041;-60
2020/12/30 09:40:11;;;;;;;4.18;1.88;;;4.00;99.90;;;;;;5061978;28;20389;-59
2020/12/30 09:42:38;;;;;;;6.53;2.03;;;4.00;99.90;;;;;;5062222;28;20494;-60
2020/12/30 09:45:07;;;;;;;8.20;2.72;;;3.90;99.90;;;;;;5062486;28;20109;-61
2020/12/30 09:47:34;;;;;;;7.68;2.33;;;3.90;99.90;;;;;;5065402;28;20036;-60
2020/12/30 09:49:59;;;;;;;9.18;2.78;;;3.90;99.90;;;;;;5060855;28;20029;-60
2020/12/30 09:52:25;;;;;;;6.43;2.67;;;3.90;99.90;;;;;;5061759;28;20105;-63
2020/12/30 09:54:50;;;;;;;7.05;3.35;;;3.90;99.90;;;;;;5059235;28;20060;-61
2020/12/30 09:57:16;;;;;;;10.88;3.70;;;4.00;99.90;;;;;;5058925;28;20032;-61
2020/12/30 09:59:42;;;;;;;12.27;3.10;;;4.10;99.90;;;;;;5061592;28;20063;-61
2020/12/30 10:02:08;;;;;;;6.85;2.50;;;4.10;99.90;;;;;;5058722;28;20037;-62
2020/12/30 10:04:33;;;;;;;6.25;2.40;;;4.20;99.90;;;;;;5061542;28;20025;-61
2020/12/30 10:06:59;;;;;;;6.15;2.55;;;4.20;99.90;;;;;;5060751;28;20055;-61
2020/12/30 10:09:24;;;;;;;8.43;2.85;;;4.20;99.90;;;;;;5060227;28;20435;-60
2020/12/30 10:11:51;;;;;;;8.40;2.70;;;4.30;99.90;;;;;;5062140;28;20039;-61
2020/12/30 10:14:20;;;;;;;7.68;2.72;;;4.30;99.90;;;;;;5059441;28;20029;-61
2020/12/30 10:16:46;;;;;;;9.85;2.85;;;4.40;99.90;;;;;;5062064;28;20033;-62
2020/12/30 10:19:12;;;;;;;8.32;3.03;;;4.60;99.90;;;;;;5059214;28;20207;-61
2020/12/30 10:21:38;;;;;;;5.28;2.20;;;4.80;99.90;;;;;;5061953;28;20520;-63
2020/12/30 10:24:03;;;;;;;5.78;2.35;;;5.00;99.90;;;;;;5058042;28;20036;-60
2020/12/30 10:26:28;;;;;;;9.75;2.05;;;5.00;99.90;;;;;;5063054;28;20033;-61
2020/12/30 10:28:54;;;;;;;4.85;1.98;;;5.10;99.90;;;;;;5060553;28;20033;-61
2020/12/30 10:31:19;;;;;;;7.93;2.97;;;5.10;99.90;;;;;;5060566;28;20440;-61
2020/12/30 10:33:49;;;;;;;3.80;1.90;;;5.20;99.90;;;;;;5058289;28;20041;-65
2020/12/30 10:36:14;;;;;;;4.57;1.90;;;5.30;99.90;;;;;;5066459;28;20043;-62
2020/12/30 10:38:40;;;;;;;3.83;1.50;;;5.30;99.90;;;;;;5061090;28;20028;-61
2020/12/30 10:41:05;;;;;;;2.20;1.35;;;5.40;99.90;;;;;;5058724;28;20504;-60
2020/12/30 10:43:31;;;;;;;4.07;2.08;;;5.50;99.90;;;;;;5058849;28;20093;-61
2020/12/30 10:45:56;;;;;;;6.15;1.65;;;5.50;99.90;;;;;;5059802;28;20033;-61
2020/12/30 10:48:22;;;;;;;5.32;1.48;;;5.50;99.90;;;;;;5061191;28;20385;-61
2020/12/30 10:50:47;;;;;;;2.65;1.20;;;5.60;99.90;;;;;;5057319;28;20512;-61
2020/12/30 10:53:13;;;;;;;6.32;1.20;;;5.70;99.90;;;;;;5061986;28;20060;-61
2020/12/30 10:55:38;;;;;;;5.35;1.90;;;5.80;99.90;;;;;;5058133;28;20029;-63
2020/12/30 10:58:04;;;;;;;3.47;0.60;;;5.70;99.90;;;;;;5058513;28;20049;-63
2020/12/30 11:00:29;;;;;;;2.35;0.65;;;5.80;99.90;;;;;;5060492;28;20549;-61
2020/12/30 11:02:55;;;;;;;2.40;0.50;;;6.10;99.90;;;;;;5059750;28;20028;-62
2020/12/30 11:05:20;;;;;;;2.20;0.40;;;6.30;99.90;;;;;;5058895;28;20505;-60
2020/12/30 11:07:46;;;;;;;5.75;0.50;;;6.50;99.90;;;;;;5061452;28;20493;-60
2020/12/30 11:10:11;;;;;;;4.35;0.55;;;6.60;99.90;;;;;;5057562;28;20040;-61
2020/12/30 11:12:37;;;;;;;2.30;0.73;;;6.60;99.90;;;;;;5061309;28;20044;-65
2020/12/30 11:15:07;;;;;;;1.75;0.35;;;6.50;99.90;;;;;;5056794;28;20124;-60
2020/12/30 11:17:33;;;;;;;1.67;0.40;;;6.30;99.90;;;;;;5060509;28;20033;-62
2020/12/30 11:19:58;;;;;;;2.35;0.52;;;6.10;99.90;;;;;;5058801;28;20024;-62
2020/12/30 11:22:29;;;;;;;1.45;0.40;;;5.90;99.90;;;;;;5059894;28;20036;-62
2020/12/30 11:24:54;;;;;;;2.70;1.13;;;5.80;99.90;;;;;;5059122;28;20408;-62
2020/12/30 11:27:20;;;;;;;2.30;1.02;;;5.70;99.90;;;;;;5057754;28;20037;-62
2020/12/30 11:29:45;;;;;;;4.13;0.38;;;5.80;99.90;;;;;;5060548;28;20029;-61
2020/12/30 11:32:11;;;;;;;1.88;0.40;;;5.90;99.90;;;;;;5057325;28;20033;-62
2020/12/30 11:34:36;;;;;;;4.00;1.00;;;6.10;99.90;;;;;;5055212;28;20039;-60
2020/12/30 11:37:02;;;;;;;2.63;0.40;;;6.10;99.90;;;;;;5056055;28;20025;-60
2020/12/30 11:39:28;;;;;;;1.70;0.40;;;6.10;99.90;;;;;;5061341;28;20021;-60
2020/12/30 11:41:53;;;;;;;3.40;0.30;;;6.10;99.90;;;;;;5059038;28;20040;-61
2020/12/30 11:44:20;;;;;;;4.40;0.20;;;6.10;99.90;;;;;;5060721;28;20094;-61
2020/12/30 11:46:50;;;;;;;3.00;0.47;;;6.00;99.90;;;;;;5058596;28;20472;-61
2020/12/30 11:49:15;;;;;;;0.63;0.15;;;6.00;99.90;;;;;;5059643;28;20035;-63
2020/12/30 11:51:41;;;;;;;1.65;0.20;;;6.00;99.90;;;;;;5057108;28;20108;-61
2020/12/30 11:54:07;;;;;;;3.55;0.22;;;6.00;99.90;;;;;;5060667;28;20129;-60
2020/12/30 11:56:32;;;;;;;3.40;0.13;;;6.00;99.90;;;;;;5057683;28;20055;-63
2020/12/30 11:58:58;;;;;;;1.88;0.20;;;6.00;99.90;;;;;;5058251;28;20109;-63
2020/12/30 12:01:23;;;;;;;8.90;0.52;;;6.10;99.90;;;;;;5058467;28;20029;-62
2020/12/30 12:03:49;;;;;;;5.20;0.45;;;6.00;99.90;;;;;;5059506;28;20439;-61
2020/12/30 12:06:14;;;;;;;4.57;0.52;;;6.10;99.90;;;;;;5057279;28;20029;-61
2020/12/30 12:08:40;;;;;;;1.80;0.35;;;6.10;99.90;;;;;;5060290;28;20516;-60
2020/12/30 12:11:06;;;;;;;7.97;0.90;;;6.10;99.90;;;;;;5056190;28;20115;-61
2020/12/30 12:13:32;;;;;;;3.05;1.05;;;6.20;99.90;;;;;;5066838;28;20123;-61
2020/12/30 12:15:58;;;;;;;1.95;0.40;;;6.20;99.90;;;;;;5062541;28;20060;-61
2020/12/30 12:18:24;;;;;;;3.40;1.10;;;6.20;99.90;;;;;;5063330;28;20513;-63
2020/12/30 12:20:49;;;;;;;3.97;1.33;;;6.20;99.90;;;;;;5063920;28;20070;-61
2020/12/30 12:23:15;;;;;;;2.65;0.60;;;6.10;99.90;;;;;;5059457;28;20063;-60
2020/12/30 12:25:43;;;;;;;3.08;0.70;;;6.10;99.90;;;;;;5063490;28;20067;-61
2020/12/30 12:28:09;;;;;;;7.43;0.50;;;6.10;99.90;;;;;;5067714;28;20044;-61
2020/12/30 12:30:35;;;;;;;0.90;0.40;;;6.10;99.90;;;;;;5064109;28;20024;-61
2020/12/30 12:33:00;;;;;;;1.10;0.38;;;6.10;99.90;;;;;;5055443;28;20060;-62
2020/12/30 12:35:26;;;;;;;2.85;0.60;;;6.10;99.90;;;;;;5059107;28;20047;-61
2020/12/30 12:38:07;;;;;;;1.38;0.68;;;6.20;99.90;;;;;;5056620;28;20055;-60
2020/12/30 12:40:32;;;;;;;;;;;6.20;99.90;;;;;;5057689;28;20051;-61
2020/12/30 12:42:58;;;;;;;3.92;0.90;;;6.20;99.90;;;;;;5057214;28;20377;-62
2020/12/30 12:45:23;;;;;;;2.80;0.70;;;6.30;99.90;;;;;;5058035;28;20072;-61
2020/12/30 12:47:49;;;;;;;5.57;0.98;;;6.30;99.90;;;;;;5059328;28;20029;-61
2020/12/30 12:50:14;;;;;;;6.60;0.90;;;6.40;99.90;;;;;;5058406;28;20029;-63
2020/12/30 12:52:40;;;;;;;5.00;0.85;;;6.40;99.90;;;;;;5059706;28;20078;-61
2020/12/30 12:55:06;;;;;;;2.35;0.80;;;6.50;99.90;;;;;;5056527;28;20044;-62